createdAt,value
2018-12-01T00:00:36.182Z,98158.70
2018-12-01T00:03:07.327Z,98146.36
2018-12-01T00:05:38.470Z,98156.03
2018-12-01T00:08:10.361Z,98153.38
2018-12-01T00:10:42.800Z,98157.55
2018-12-01T00:13:13.642Z,98152.34
2018-12-01T00:15:44.612Z,98153.46
2018-12-01T00:18:15.973Z,98153.02
2018-12-01T00:20:47.095Z,98155.92
2018-12-01T00:23:17.940Z,98157.03
2018-12-01T00:25:49.152Z,98155.36
2018-12-01T00:28:20.013Z,98154.83
2018-12-01T00:30:50.930Z,98145.98
2018-12-01T00:33:21.860Z,98144.55
2018-12-01T00:35:53.110Z,98149.75
2018-12-01T00:38:24.488Z,98155.03
2018-12-01T00:40:55.509Z,98147.60
2018-12-01T00:43:26.562Z,98149.09
2018-12-01T00:46:01.325Z,98146.48
2018-12-01T00:48:32.376Z,98148.45
2018-12-01T00:51:03.382Z,98145.27
2018-12-01T00:53:34.287Z,98153.59
2018-12-01T00:56:07.790Z,98156.24
2018-12-01T00:58:38.734Z,98163.14
2018-12-01T01:01:09.733Z,98166.05
2018-12-01T01:03:40.968Z,98164.75
2018-12-01T01:06:11.909Z,98164.56
2018-12-01T01:08:42.897Z,98171.83
2018-12-01T01:11:14.387Z,98172.73
2018-12-01T01:13:45.282Z,98176.48
2018-12-01T01:16:16.163Z,98172.81
2018-12-01T01:18:47.129Z,98183.38
2018-12-01T01:21:19.331Z,98182.84
2018-12-01T01:23:50.300Z,98175.14
2018-12-01T01:26:21.204Z,98173.13
2018-12-01T01:28:52.166Z,98178.72
2018-12-01T01:31:24.453Z,98185.71
2018-12-01T01:33:55.318Z,98184.55
2018-12-01T01:36:26.332Z,98180.02
2018-12-01T01:38:57.283Z,98183.77
2018-12-01T01:41:32.047Z,98188.12
2018-12-01T01:44:03.057Z,98194.80
2018-12-01T01:46:34.130Z,98192.34
2018-12-01T01:49:05.419Z,98190.86
2018-12-01T01:51:36.391Z,98194.80
2018-12-01T01:54:07.430Z,98195.65
2018-12-01T01:56:38.596Z,98194.44
2018-12-01T01:59:09.548Z,98183.01
2018-12-01T02:01:41.578Z,98191.84
2018-12-01T02:04:12.527Z,98190.48
2018-12-01T02:06:43.742Z,98186.39
2018-12-01T02:09:14.640Z,98188.45
2018-12-01T02:11:45.518Z,98189.67
2018-12-01T02:14:16.404Z,98190.61
2018-12-01T02:16:49.848Z,98196.50
2018-12-01T02:19:20.833Z,98192.46
2018-12-01T02:21:51.779Z,98188.86
2018-12-01T02:24:28.822Z,98181.97
2018-12-01T02:26:59.758Z,98192.75
2018-12-01T02:29:30.688Z,98192.88
2018-12-01T02:32:01.652Z,98193.27
2018-12-01T02:34:35.026Z,98197.28
2018-12-01T02:37:06.168Z,98195.27
2018-12-01T02:39:37.079Z,98193.08
2018-12-01T02:42:08.094Z,98192.67
2018-12-01T02:45:00.746Z,98198.44
2018-12-01T02:47:32.075Z,98193.13
2018-12-01T02:50:03.335Z,98197.02
2018-12-01T02:52:34.214Z,98195.48
2018-12-01T02:55:05.971Z,98198.44
2018-12-01T02:57:39.387Z,98195.72
2018-12-01T03:00:13.199Z,98192.88
2018-12-01T03:02:45.909Z,98193.38
2018-12-01T03:05:17.021Z,98202.91
2018-12-01T03:07:47.911Z,98206.56
2018-12-01T03:10:19.188Z,98202.72
2018-12-01T03:12:50.330Z,98200.61
2018-12-01T03:15:21.810Z,98197.53
2018-12-01T03:17:53.362Z,98207.12
2018-12-01T03:20:24.407Z,98199.61
2018-12-01T03:22:56.848Z,98201.95
2018-12-01T03:25:27.892Z,98207.55
2018-12-01T03:27:58.811Z,98201.17
2018-12-01T03:30:35.531Z,98204.48
2018-12-01T03:33:06.569Z,98197.73
2018-12-01T03:35:37.436Z,98202.86
2018-12-01T03:38:10.966Z,98201.80
2018-12-01T03:40:46.814Z,98205.70
2018-12-01T03:43:17.746Z,98209.73
2018-12-01T03:45:49.065Z,98206.42
2018-12-01T03:48:20.067Z,98202.48
2018-12-01T03:50:51.005Z,98198.95
2018-12-01T03:53:25.861Z,98204.82
2018-12-01T03:55:56.869Z,98200.00
2018-12-01T03:58:28.971Z,98200.00
2018-12-01T04:00:59.926Z,98201.44
2018-12-01T04:03:31.067Z,98198.31
2018-12-01T04:06:02.115Z,98186.89
2018-12-01T04:08:35.475Z,98191.95
2018-12-01T04:11:06.857Z,98193.72
2018-12-01T04:13:38.780Z,98197.47
2018-12-01T04:16:09.697Z,98201.55
2018-12-01T04:18:44.496Z,98203.95
2018-12-01T04:21:15.454Z,98201.04
2018-12-01T04:23:46.533Z,98207.08
2018-12-01T04:26:17.463Z,98196.84
2018-12-01T04:28:49.377Z,98203.95
2018-12-01T04:31:20.496Z,98200.86
2018-12-01T04:33:52.578Z,98203.06
2018-12-01T04:36:23.614Z,98205.02
2018-12-01T04:38:54.483Z,98215.33
2018-12-01T04:41:31.833Z,98211.94
2018-12-01T04:44:02.747Z,98207.52
2018-12-01T04:46:33.688Z,98204.80
2018-12-01T04:49:04.632Z,98203.47
2018-12-01T04:51:35.914Z,98213.98
2018-12-01T04:54:07.037Z,98208.78
2018-12-01T04:56:37.948Z,98210.00
2018-12-01T04:59:09.214Z,98213.24
2018-12-01T05:01:40.182Z,98212.47
2018-12-01T05:04:11.179Z,98213.31
2018-12-01T05:06:42.193Z,98218.16
2018-12-01T05:09:13.419Z,98219.79
2018-12-01T05:11:44.361Z,98221.65
2018-12-01T05:14:16.423Z,98216.13
2018-12-01T05:16:47.326Z,98225.48
2018-12-01T05:19:18.351Z,98228.08
2018-12-01T05:21:49.249Z,98228.67
2018-12-01T05:24:20.506Z,98228.38
2018-12-01T05:26:51.678Z,98231.61
2018-12-01T05:29:22.726Z,98235.32
2018-12-01T05:31:53.826Z,98231.21
2018-12-01T05:34:25.222Z,98230.58
2018-12-01T05:36:56.149Z,98229.84
2018-12-01T05:39:27.227Z,98229.17
2018-12-01T05:41:58.272Z,98236.17
2018-12-01T05:44:29.571Z,98234.35
2018-12-01T05:47:00.545Z,98240.27
2018-12-01T05:49:31.485Z,98244.56
2018-12-01T05:52:02.482Z,98243.59
2018-12-01T05:54:33.837Z,98248.13
2018-12-01T05:57:04.910Z,98250.59
2018-12-01T05:59:35.850Z,98246.02
2018-12-01T06:02:07.162Z,98243.47
2018-12-01T06:04:38.404Z,98244.77
2018-12-01T06:07:09.634Z,98249.50
2018-12-01T06:09:40.444Z,98244.84
2018-12-01T06:12:11.350Z,98253.86
2018-12-01T06:14:42.640Z,98256.45
2018-12-01T06:17:13.544Z,98261.48
2018-12-01T06:19:44.393Z,98260.77
2018-12-01T06:22:15.272Z,98269.66
2018-12-01T06:24:46.641Z,98272.78
2018-12-01T06:27:17.676Z,98278.91
2018-12-01T06:29:48.640Z,98277.91
2018-12-01T06:32:20.064Z,98282.86
2018-12-01T06:34:51.466Z,98281.97
2018-12-01T06:37:22.562Z,98290.08
2018-12-01T06:39:53.602Z,98294.41
2018-12-01T06:42:24.650Z,98304.05
2018-12-01T06:44:55.715Z,98298.12
2018-12-01T06:47:26.766Z,98299.86
2018-12-01T06:49:57.719Z,98299.25
2018-12-01T06:52:29.229Z,98297.70
2018-12-01T06:55:00.307Z,98300.80
2018-12-01T06:57:31.343Z,98309.34
2018-12-01T07:00:04.828Z,98309.25
2018-12-01T07:02:35.778Z,98309.75
2018-12-01T07:05:07.909Z,98313.89
2018-12-01T07:07:39.114Z,98326.06
2018-12-01T07:10:12.036Z,98317.98
2018-12-01T07:12:44.352Z,98319.08
2018-12-01T07:15:18.370Z,98322.80
2018-12-01T07:17:50.689Z,98315.38
2018-12-01T07:20:21.727Z,98311.24
2018-12-01T07:22:52.719Z,98316.06
2018-12-01T07:25:23.765Z,98315.73
2018-12-01T07:27:55.053Z,98315.83
2018-12-01T07:30:26.170Z,98315.56
2018-12-01T07:32:57.199Z,98316.06
2018-12-01T07:35:28.213Z,98313.85
2018-12-01T07:38:00.620Z,98306.01
2018-12-01T07:40:31.876Z,98299.02
2018-12-01T07:43:04.286Z,98295.81
2018-12-01T07:45:35.278Z,98295.66
2018-12-01T07:48:06.210Z,98306.06
2018-12-01T07:50:37.229Z,98298.25
2018-12-01T07:53:09.720Z,98313.08
2018-12-01T07:55:40.673Z,98316.43
2018-12-01T07:58:12.042Z,98308.03
2018-12-01T08:00:44.163Z,98312.91
2018-12-01T08:03:15.677Z,98308.37
2018-12-01T08:05:46.779Z,98322.59
2018-12-01T08:08:17.715Z,98308.46
2018-12-01T08:10:48.754Z,98305.02
2018-12-01T08:13:21.775Z,98311.33
2018-12-01T08:15:54.833Z,98314.77
2018-12-01T08:18:25.828Z,98315.63
2018-12-01T08:20:58.434Z,98306.48
2018-12-01T08:23:29.434Z,98304.34
2018-12-01T08:26:00.359Z,98309.98
2018-12-01T08:28:31.922Z,98315.92
2018-12-01T08:31:03.201Z,98313.89
2018-12-01T08:33:34.208Z,98307.13
2018-12-01T08:36:05.547Z,98306.62
2018-12-01T08:38:36.630Z,98301.03
2018-12-01T08:41:07.667Z,98307.11
2018-12-01T08:43:39.090Z,98298.08
2018-12-01T08:46:10.093Z,98296.44
2018-12-01T08:48:40.998Z,98295.23
2018-12-01T08:51:12.009Z,98285.55
2018-12-01T08:53:43.064Z,98287.72
2018-12-01T08:56:15.631Z,98288.75
2018-12-01T08:58:46.544Z,98282.48
2018-12-01T09:01:17.456Z,98280.31
2018-12-01T09:03:48.982Z,98284.52
2018-12-01T09:06:19.843Z,98281.44
2018-12-01T09:08:50.736Z,98288.05
2018-12-01T09:11:21.655Z,98278.73
2018-12-01T09:13:52.697Z,98288.47
2018-12-01T09:16:23.643Z,98293.70
2018-12-01T09:18:54.594Z,98297.88
2018-12-01T09:21:27.865Z,98304.98
2018-12-01T09:23:58.862Z,98293.09
2018-12-01T09:26:29.913Z,98286.87
2018-12-01T09:29:00.952Z,98283.90
2018-12-01T09:31:33.413Z,98280.41
2018-12-01T09:34:04.328Z,98285.70
2018-12-01T09:36:36.594Z,98285.10
2018-12-01T09:39:09.460Z,98286.22
2018-12-01T09:41:41.761Z,98279.92
2018-12-01T09:44:13.753Z,98279.03
2018-12-01T09:46:45.791Z,98279.34
2018-12-01T09:49:16.791Z,98281.95
2018-12-01T09:51:48.010Z,98278.30
2018-12-01T09:54:19.633Z,98278.22
2018-12-01T09:56:50.492Z,98269.23
2018-12-01T09:59:21.501Z,98272.25
2018-12-01T10:01:52.520Z,98268.03
2018-12-01T10:04:23.498Z,98268.13
2018-12-01T10:06:54.434Z,98270.52
2018-12-01T10:09:26.079Z,98278.63
2018-12-01T10:11:57.465Z,98270.14
2018-12-01T10:14:29.851Z,98267.53
2018-12-01T10:17:01.185Z,98263.35
2018-12-01T10:19:32.164Z,98262.75
2018-12-01T10:22:03.364Z,98268.13
2018-12-01T10:24:34.429Z,98259.58
2018-12-01T10:27:06.260Z,98260.47
2018-12-01T10:29:37.998Z,98260.33
2018-12-01T10:32:09.343Z,98262.39
2018-12-01T10:34:40.717Z,98252.19
2018-12-01T10:37:11.939Z,98249.55
2018-12-01T10:39:44.257Z,98240.73
2018-12-01T10:47:20.498Z,98229.98
2018-12-01T10:49:51.249Z,98235.45
2018-12-01T10:52:21.934Z,98228.20
2018-12-01T10:54:53.053Z,98235.77
2018-12-01T10:57:24.370Z,98236.27
2018-12-01T10:59:55.394Z,98250.75
2018-12-01T11:02:31.051Z,98254.11
2018-12-01T11:05:01.773Z,98249.50
2018-12-01T11:07:32.537Z,98243.77
2018-12-01T11:10:03.445Z,98246.28
2018-12-01T11:12:34.092Z,98238.16
2018-12-01T11:15:05.044Z,98235.72
2018-12-01T11:17:36.082Z,98230.65
2018-12-01T11:20:10.953Z,98231.08
2018-12-01T11:22:41.731Z,98222.00
2018-12-01T11:25:22.005Z,98226.51
2018-12-01T11:27:53.485Z,98213.77
2018-12-01T11:30:24.394Z,98224.30
2018-12-01T11:32:56.738Z,98221.11
2018-12-01T11:35:27.587Z,98209.36
2018-12-01T11:37:58.407Z,98205.09
2018-12-01T11:40:29.464Z,98208.35
2018-12-01T11:43:00.400Z,98197.59
2018-12-01T11:45:33.547Z,98185.42
2018-12-01T11:48:04.403Z,98184.34
2018-12-01T11:50:35.063Z,98186.75
2018-12-01T11:53:06.773Z,98183.92
2018-12-01T11:55:37.601Z,98178.53
2018-12-01T11:58:08.716Z,98179.42
2018-12-01T12:00:40.783Z,98176.06
2018-12-01T12:03:11.417Z,98159.56
2018-12-01T12:05:42.352Z,98180.08
2018-12-01T12:08:20.046Z,98181.05
2018-12-01T12:10:51.938Z,98178.78
2018-12-01T12:13:24.312Z,98184.34
2018-12-01T12:15:55.288Z,98180.82
2018-12-01T12:18:26.015Z,98182.03
2018-12-01T12:20:56.818Z,98179.30
2018-12-01T12:23:28.032Z,98172.59
2018-12-01T12:26:00.326Z,98171.41
2018-12-01T12:28:31.915Z,98175.30
2018-12-01T12:31:02.710Z,98169.00
2018-12-01T12:33:33.983Z,98168.15
2018-12-01T12:36:04.667Z,98162.09
2018-12-01T12:38:39.158Z,98163.16
2018-12-01T12:41:10.021Z,98170.80
2018-12-01T12:43:40.807Z,98164.34
2018-12-01T12:46:19.085Z,98164.06
2018-12-01T12:48:49.895Z,98162.31
2018-12-01T12:51:20.624Z,98151.79
2018-12-01T12:53:51.274Z,98147.98
2018-12-01T12:56:21.941Z,98144.52
2018-12-01T12:58:52.597Z,98146.84
2018-12-01T13:01:23.354Z,98142.27
2018-12-01T13:03:54.195Z,98143.06
2018-12-01T13:06:33.773Z,98148.52
2018-12-01T13:09:06.935Z,98144.44
2018-12-01T13:14:16.843Z,98135.75
2018-12-01T13:16:47.673Z,98135.07
2018-12-01T13:19:18.526Z,98128.15
2018-12-01T13:21:49.320Z,98123.70
2018-12-01T13:24:20.300Z,98115.84
2018-12-01T13:26:51.312Z,98115.67
2018-12-01T13:29:22.810Z,98117.87
2018-12-01T13:31:54.573Z,98115.27
2018-12-01T13:34:26.570Z,98111.27
2018-12-01T13:36:57.264Z,98103.60
2018-12-01T13:39:28.583Z,98103.70
2018-12-01T13:41:59.522Z,98104.08
2018-12-01T13:44:30.359Z,98102.19
2018-12-01T13:47:01.207Z,98097.70
2018-12-01T13:49:32.361Z,98096.55
2018-12-01T13:52:03.165Z,98094.30
2018-12-01T13:54:33.908Z,98100.25
2018-12-01T13:57:06.198Z,98103.05
2018-12-01T13:59:37.016Z,98098.56
2018-12-01T14:02:08.606Z,98100.61
2018-12-01T14:04:39.361Z,98103.44
2018-12-01T14:10:03.295Z,98106.82
2018-12-01T14:12:34.417Z,98110.73
2018-12-01T14:15:05.593Z,98117.80
2018-12-01T14:17:36.246Z,98114.83
2018-12-01T14:20:07.874Z,98125.23
2018-12-01T14:22:40.777Z,98116.80
2018-12-01T14:25:13.159Z,98116.09
2018-12-01T14:27:47.196Z,98114.76
2018-12-01T14:30:18.447Z,98112.14
2018-12-01T14:32:49.417Z,98116.20
2018-12-01T14:35:36.191Z,98113.95
2018-12-01T14:38:10.356Z,98113.96
2018-12-01T14:40:42.220Z,98121.75
2018-12-01T14:43:13.415Z,98122.83
2018-12-01T14:45:45.266Z,98111.02
2018-12-01T14:48:16.282Z,98118.41
2018-12-01T14:50:48.725Z,98112.22
2018-12-01T14:53:20.701Z,98116.24
2018-12-01T14:55:51.450Z,98105.34
2018-12-01T14:58:22.539Z,98096.44
2018-12-01T15:00:53.324Z,98096.00
2018-12-01T15:03:24.148Z,98098.15
2018-12-01T15:05:55.215Z,98094.22
2018-12-01T15:08:26.272Z,98097.52
2018-12-01T15:10:58.089Z,98096.53
2018-12-01T15:13:31.999Z,98075.61
2018-12-01T15:16:02.803Z,98093.47
2018-12-01T15:18:34.389Z,98099.77
2018-12-01T15:21:05.534Z,98091.94
2018-12-01T15:23:36.270Z,98088.42
2018-12-01T15:26:07.341Z,98088.42
2018-12-01T15:28:38.171Z,98083.25
2018-12-01T15:31:08.996Z,98078.00
2018-12-01T15:33:39.986Z,98076.70
2018-12-01T15:36:11.316Z,98086.38
2018-12-01T15:38:42.069Z,98092.27
2018-12-01T15:41:12.891Z,98093.97
2018-12-01T15:43:45.235Z,98090.45
2018-12-01T15:46:16.376Z,98089.47
2018-12-01T15:48:47.173Z,98091.98
2018-12-01T15:51:18.072Z,98090.48
2018-12-01T15:53:48.971Z,98092.76
2018-12-01T15:56:20.099Z,98091.44
2018-12-01T15:58:50.888Z,98090.06
2018-12-01T16:01:22.916Z,98094.97
2018-12-01T16:03:54.493Z,98090.17
2018-12-01T16:06:25.876Z,98086.28
2018-12-01T16:08:56.660Z,98093.45
2018-12-01T16:11:27.832Z,98085.45
2018-12-01T16:13:59.129Z,98086.05
2018-12-01T16:16:33.772Z,98087.36
2018-12-01T16:19:06.940Z,98082.31
2018-12-01T16:21:37.986Z,98083.67
2018-12-01T16:24:11.503Z,98083.00
2018-12-01T16:26:43.376Z,98080.41
2018-12-01T16:29:14.199Z,98074.27
2018-12-01T16:31:44.824Z,98075.02
2018-12-01T16:34:17.187Z,98072.56
2018-12-01T16:36:48.113Z,98073.78
2018-12-01T16:39:22.324Z,98071.92
2018-12-01T16:41:53.628Z,98067.25
2018-12-01T16:44:39.471Z,98063.25
2018-12-01T16:47:10.276Z,98066.56
2018-12-01T16:49:42.373Z,98069.49
2018-12-01T16:52:13.507Z,98073.88
2018-12-01T16:54:44.417Z,98068.03
2018-12-01T16:57:15.080Z,98061.34
2018-12-01T16:59:46.115Z,98062.89
2018-12-01T17:02:16.704Z,98058.40
2018-12-01T17:04:47.486Z,98059.36
2018-12-01T17:07:18.577Z,98059.59
2018-12-01T17:09:49.272Z,98060.50
2018-12-01T17:12:20.062Z,98055.89
2018-12-01T17:14:52.205Z,98058.72
2018-12-01T17:17:23.016Z,98054.95
2018-12-01T17:19:53.985Z,98050.92
2018-12-01T17:22:24.880Z,98047.56
2018-12-01T17:24:55.606Z,98040.05
2018-12-01T17:27:26.434Z,98051.96
2018-12-01T17:29:58.353Z,98041.30
2018-12-01T17:32:29.237Z,98034.58
2018-12-01T17:35:00.094Z,98027.52
2018-12-01T17:37:32.261Z,98020.63
2018-12-01T17:40:03.062Z,98019.27
2018-12-01T17:42:39.040Z,98018.45
2018-12-01T17:45:11.408Z,98018.45
2018-12-01T17:47:43.190Z,98011.34
2018-12-01T17:50:15.970Z,98014.58
2018-12-01T17:52:50.280Z,98016.27
2018-12-01T17:55:21.984Z,98014.53
2018-12-01T17:57:54.457Z,98019.77
2018-12-01T18:00:26.664Z,98014.67
2018-12-01T18:05:56.234Z,98019.22
2018-12-01T18:08:44.619Z,98013.27
2018-12-01T18:11:19.854Z,98016.63
2018-12-01T18:14:23.248Z,98010.39
2018-12-01T18:19:56.543Z,98007.73
2018-12-01T18:22:27.231Z,97997.59
2018-12-01T18:24:58.024Z,97999.34
2018-12-01T18:27:29.180Z,97997.90
2018-12-01T18:30:00.136Z,98001.80
2018-12-01T18:32:47.928Z,97999.65
2018-12-01T18:36:01.642Z,98004.28
2018-12-01T18:38:32.398Z,98000.10
2018-12-01T18:41:03.596Z,97995.30
2018-12-01T18:43:34.414Z,97991.48
2018-12-01T18:46:08.139Z,97996.40
2018-12-01T18:48:39.306Z,97993.62
2018-12-01T18:51:10.114Z,97976.12
2018-12-01T18:53:40.949Z,97970.47
2018-12-01T18:56:11.896Z,97960.22
2018-12-01T18:58:42.719Z,97962.73
2018-12-01T19:01:13.665Z,97957.23
2018-12-01T19:03:48.748Z,97963.81
2018-12-01T19:06:19.662Z,97963.42
2018-12-01T19:08:50.442Z,97968.47
2018-12-01T19:11:21.623Z,97955.33
2018-12-01T19:13:52.355Z,97961.06
2018-12-01T19:16:23.137Z,97956.48
2018-12-01T19:18:53.925Z,97950.89
2018-12-01T19:21:24.649Z,97952.05
2018-12-01T19:24:00.199Z,97952.50
2018-12-01T19:26:31.035Z,97952.64
2018-12-01T19:29:02.142Z,97952.73
2018-12-01T19:31:33.250Z,97952.13
2018-12-01T19:34:03.998Z,97950.89
2018-12-01T19:36:34.963Z,97950.45
2018-12-01T19:39:08.662Z,97948.75
2018-12-01T19:41:40.993Z,97947.39
2018-12-01T19:44:12.662Z,97949.16
2018-12-01T19:46:43.766Z,97942.35
2018-12-01T19:49:20.030Z,97940.16
2018-12-01T19:51:50.818Z,97940.60
2018-12-01T19:54:21.529Z,97929.06
2018-12-01T19:56:52.543Z,97932.35
2018-12-01T19:59:23.228Z,97922.10
2018-12-01T20:01:54.038Z,97911.55
2018-12-01T20:04:25.210Z,97908.11
2018-12-01T20:06:55.971Z,97906.50
2018-12-01T20:09:26.769Z,97901.06
2018-12-01T20:11:57.607Z,97901.16
2018-12-01T20:14:28.436Z,97903.45
2018-12-01T20:16:59.322Z,97909.65
2018-12-01T20:19:30.384Z,97909.80
2018-12-01T20:22:01.386Z,97912.01
2018-12-01T20:24:33.184Z,97908.66
2018-12-01T20:27:04.017Z,97914.37
2018-12-01T20:29:35.197Z,97920.95
2018-12-01T20:32:05.984Z,97919.56
2018-12-01T20:34:37.066Z,97914.66
2018-12-01T20:37:11.825Z,97917.51
2018-12-01T20:39:44.531Z,97919.09
2018-12-01T20:42:15.373Z,97911.30
2018-12-01T20:44:46.097Z,97907.17
2018-12-01T20:47:19.447Z,97907.09
2018-12-01T20:49:50.201Z,97899.80
2018-12-01T20:52:21.087Z,97896.05
2018-12-01T20:54:52.128Z,97897.63
2018-12-01T20:57:27.421Z,97894.39
2018-12-01T20:59:58.140Z,97889.19
2018-12-01T21:02:28.919Z,97893.56
2018-12-01T21:04:59.979Z,97892.78
2018-12-01T21:07:30.794Z,97885.92
2018-12-01T21:10:01.481Z,97873.73
2018-12-01T21:12:33.340Z,97875.13
2018-12-01T21:15:04.411Z,97875.73
2018-12-01T21:17:35.225Z,97873.67
2018-12-01T21:20:11.399Z,97865.30
2018-12-01T21:22:42.535Z,97854.00
2018-12-01T21:25:14.572Z,97854.55
2018-12-01T21:27:45.860Z,97855.46
2018-12-01T21:30:24.523Z,97847.52
2018-12-01T21:32:57.161Z,97849.83
2018-12-01T21:35:27.880Z,97846.79
2018-12-01T21:37:58.699Z,97840.12
2018-12-01T21:40:29.484Z,97830.60
2018-12-01T21:43:00.197Z,97824.45
2018-12-01T21:45:32.304Z,97830.73
2018-12-01T21:48:03.197Z,97820.94
2018-12-01T21:50:33.971Z,97810.83
2018-12-01T21:53:34.409Z,97811.22
2018-12-01T21:56:05.227Z,97809.79
2018-12-01T21:58:36.003Z,97804.20
2018-12-01T22:01:07.931Z,97802.02
2018-12-01T22:03:38.618Z,97808.94
2018-12-01T22:06:09.647Z,97815.25
2018-12-01T22:08:41.442Z,97803.58
2018-12-01T22:11:12.399Z,97805.56
2018-12-01T22:13:43.245Z,97800.36
2018-12-01T22:16:14.732Z,97794.86
2018-12-01T22:18:45.691Z,97786.69
2018-12-01T22:21:17.364Z,97786.52
2018-12-01T22:23:48.113Z,97785.56
2018-12-01T22:26:21.560Z,97786.94
2018-12-01T22:28:53.392Z,97781.20
2018-12-01T22:31:26.680Z,97782.74
2018-12-01T22:33:57.736Z,97783.70
2018-12-01T22:36:28.382Z,97776.00
2018-12-01T22:38:59.214Z,97764.80
2018-12-01T22:41:29.860Z,97763.66
2018-12-01T22:44:00.523Z,97761.25
2018-12-01T22:46:31.459Z,97758.36
2018-12-01T22:49:02.283Z,97753.77
2018-12-01T22:51:34.522Z,97752.81
2018-12-01T22:54:05.461Z,97755.58
2018-12-01T22:56:36.342Z,97754.72
2018-12-01T22:59:06.979Z,97751.95
2018-12-01T23:01:38.238Z,97746.42
2018-12-01T23:04:09.222Z,97743.00
2018-12-01T23:06:40.150Z,97736.56
2018-12-01T23:09:10.986Z,97733.73
2018-12-01T23:11:41.923Z,97737.63
2018-12-01T23:14:12.614Z,97725.14
2018-12-01T23:16:43.348Z,97724.30
2018-12-01T23:19:15.232Z,97721.73
2018-12-01T23:21:46.165Z,97709.00
2018-12-01T23:24:16.952Z,97718.92
2018-12-01T23:26:47.760Z,97707.47
2018-12-01T23:29:20.367Z,97707.59
2018-12-01T23:31:52.487Z,97693.44
2018-12-01T23:34:25.291Z,97695.38
2018-12-01T23:36:56.123Z,97693.89
2018-12-01T23:39:26.962Z,97689.43
2018-12-01T23:41:57.761Z,97686.03
2018-12-01T23:44:30.394Z,97675.96
2018-12-01T23:47:02.384Z,97680.36
2018-12-01T23:49:36.706Z,97678.39
2018-12-01T23:52:09.915Z,97680.33
2018-12-01T23:54:45.729Z,97674.77
2018-12-01T23:57:16.654Z,97674.32
2018-12-01T23:59:50.054Z,97670.69
